KEGI/EGI METAR and TAF weather

Enter ICAO airport designator
Station Type Date Time Source
KEGI METAR 2022/01/19 19:56 UTC NOAA

KEGI 191956Z AUTO 15011KT 10SM FEW040 20/10 A3013 RMK AO2 SLP204 T01990097 $


Station Type Date Time Source
KEGI Decoded METAR 2022/01/19 19:56 UTC NOAA

Duke Field / Eglin Auxiliary, FL, United States (KEGI) 30-39N 086-31W
Jan 19, 2022 - 02:56 PM EST / 2022.01.19 1956 UTC
Wind: from the SSE (150 degrees) at 13 MPH (11 KT):0
Visibility: 10 mile(s):0
Sky conditions: mostly clear
Temperature: 67.8 F (19.9 C)
Dew Point: 49.5 F (9.7 C)
Relative Humidity: 51%
Pressure (altimeter): 30.13 in. Hg (1020 hPa)
ob: KEGI 191956Z AUTO 15011KT 10SM FEW040 20/10 A3013 RMK AO2 SLP204 T01990097
cycle: 20

Station Type Date Time Source
KEGI TAF 2022/01/19 18:17 UTC NOAA

TAF KEGI 191800Z 1918/2024 14009KT 9999 FEW040 SCT250 QNH3016INS
BECMG 1918/1919 16010G15KT 9999 SCT040 BKN250 QNH3010INS
BECMG 1922/1923 17012KT 9999 SCT030 BKN200 QNH3006INS
BECMG 2011/2012 18010KT 9999 VCSH BKN015 BKN180 QNH3004INS
BECMG 2013/2014 23010G15KT 9000 -SHRA BKN010 BKN040 OVC100 QNH2995INS
BECMG 2020/2021 34015G25KT 9999 NSW BKN005 BKN040 QNH2998INS TX20/1920Z TN12/2013Z

Example: see airport list